createdAt,value
2022-10-26T00:04:23.409Z,0
2022-10-26T00:09:25.695Z,0
2022-10-26T00:14:29.832Z,0
2022-10-26T00:19:32.104Z,0
2022-10-26T00:24:36.291Z,0
2022-10-26T00:29:40.423Z,0
2022-10-26T00:34:44.600Z,0
2022-10-26T00:39:46.837Z,0
2022-10-26T00:44:51.025Z,0
2022-10-26T00:49:55.209Z,0
2022-10-26T00:54:59.355Z,0
2022-10-26T01:00:03.511Z,0
2022-10-26T01:05:07.688Z,0
2022-10-26T01:10:11.829Z,0
2022-10-26T01:15:16.058Z,0
2022-10-26T01:20:20.139Z,0
2022-10-26T01:25:24.346Z,0
2022-10-26T01:30:28.491Z,0
2022-10-26T01:35:32.647Z,0
2022-10-26T01:45:40.960Z,0
2022-10-26T01:50:45.152Z,0
2022-10-26T01:55:49.291Z,0
2022-10-26T02:00:53.453Z,0
2022-10-26T02:05:57.630Z,0
2022-10-26T02:10:59.881Z,0
2022-10-26T02:16:04.022Z,0
2022-10-26T02:21:06.312Z,0
2022-10-26T02:26:10.456Z,0
2022-10-26T02:31:14.648Z,0
2022-10-26T02:36:18.816Z,0
2022-10-26T02:41:22.986Z,0
2022-10-26T02:46:27.119Z,0
2022-10-26T02:51:31.305Z,0
2022-10-26T02:56:35.466Z,0
2022-10-26T03:01:39.673Z,0
2022-10-26T03:06:43.777Z,0
2022-10-26T03:11:47.944Z,0
2022-10-26T03:21:56.248Z,0
2022-10-26T03:27:02.277Z,0
2022-10-26T03:32:04.585Z,0
2022-10-26T03:37:08.869Z,0
2022-10-26T03:42:12.865Z,0
2022-10-26T03:47:17.015Z,0
2022-10-26T03:52:21.244Z,0
2022-10-26T03:57:25.373Z,0
2022-10-26T04:02:29.572Z,0
2022-10-26T04:07:31.813Z,0
2022-10-26T04:12:36.001Z,0
2022-10-26T04:17:40.176Z,0
2022-10-26T04:22:42.415Z,0
2022-10-26T04:27:46.825Z,0
2022-10-26T04:32:50.972Z,0
2022-10-26T04:37:54.864Z,0
2022-10-26T04:42:59.014Z,0
2022-10-26T04:48:03.218Z,0
2022-10-26T04:53:07.350Z,0
2022-10-26T04:58:11.525Z,0
2022-10-26T05:03:15.660Z,0
2022-10-26T05:08:19.855Z,0
2022-10-26T05:13:24.065Z,0
2022-10-26T05:18:28.151Z,0
2022-10-26T05:23:32.329Z,0
2022-10-26T05:28:36.448Z,0
2022-10-26T05:33:40.658Z,0
2022-10-26T05:38:44.810Z,0
2022-10-26T05:43:48.941Z,0
2022-10-26T05:48:53.119Z,0
2022-10-26T05:53:57.277Z,2
2022-10-26T05:59:01.475Z,7
2022-10-26T06:04:05.617Z,19
2022-10-26T06:09:07.877Z,40
2022-10-26T06:14:12.057Z,74
2022-10-26T06:19:14.292Z,118
2022-10-26T06:24:18.434Z,162
2022-10-26T06:29:22.611Z,217
2022-10-26T06:34:26.797Z,310
2022-10-26T06:39:30.960Z,305
2022-10-26T06:44:35.097Z,310
2022-10-26T06:49:39.239Z,415
2022-10-26T06:54:43.445Z,431
2022-10-26T06:59:47.592Z,491
2022-10-26T07:04:51.718Z,618
2022-10-26T07:09:55.909Z,922
2022-10-26T07:15:00.130Z,968
2022-10-26T07:20:04.242Z,1431
2022-10-26T07:25:08.378Z,1560
2022-10-26T07:30:12.521Z,1603
2022-10-26T07:35:16.695Z,1826
2022-10-26T07:45:24.983Z,2218
2022-10-26T07:50:29.175Z,2269
2022-10-26T07:55:33.347Z,1927
2022-10-26T08:00:37.581Z,1700
2022-10-26T08:05:39.739Z,1581
2022-10-26T08:10:43.940Z,1426
2022-10-26T08:15:46.222Z,1322
2022-10-26T08:20:50.355Z,1381
2022-10-26T08:25:52.609Z,1478
2022-10-26T08:30:56.806Z,1684
2022-10-26T08:36:00.998Z,1800
2022-10-26T08:41:05.106Z,1487
2022-10-26T08:46:09.281Z,1340
2022-10-26T08:51:13.415Z,1762
2022-10-26T08:56:17.630Z,1733
2022-10-26T09:01:21.876Z,1760
2022-10-26T09:06:25.918Z,1702
2022-10-26T09:11:30.050Z,2532
2022-10-26T09:16:34.253Z,2028
2022-10-26T09:21:38.410Z,1852
2022-10-26T09:26:42.576Z,1830
2022-10-26T09:31:46.737Z,1824
2022-10-26T09:36:50.865Z,1861
2022-10-26T09:41:55.034Z,1908
2022-10-26T09:46:59.165Z,1594
2022-10-26T09:52:03.400Z,1680
2022-10-26T09:57:07.536Z,3169
2022-10-26T10:02:11.609Z,4026
2022-10-26T10:07:15.775Z,5861
2022-10-26T10:12:18.056Z,4980
2022-10-26T10:17:22.242Z,3413
2022-10-26T10:22:26.400Z,4968
2022-10-26T10:27:28.655Z,5799
2022-10-26T10:32:35.731Z,4495
2022-10-26T10:37:36.989Z,2805
2022-10-26T10:42:41.132Z,2306
2022-10-26T10:47:45.318Z,2083
2022-10-26T10:52:49.720Z,2045
2022-10-26T10:57:53.597Z,2014
2022-10-26T11:02:59.821Z,2025
2022-10-26T11:08:01.968Z,2093
2022-10-26T11:13:06.081Z,2155
2022-10-26T11:18:10.255Z,2186
2022-10-26T11:23:14.420Z,2173
2022-10-26T11:28:18.577Z,2293
2022-10-26T11:33:22.719Z,2764
2022-10-26T11:38:38.995Z,2274
2022-10-26T11:43:31.070Z,2458
2022-10-26T11:48:35.192Z,2685
2022-10-26T11:53:39.368Z,2815
2022-10-26T11:58:43.524Z,2728
2022-10-26T12:03:47.729Z,2740
2022-10-26T12:08:51.851Z,2865
2022-10-26T12:13:54.074Z,2897
2022-10-26T12:18:58.311Z,2914
2022-10-26T12:24:00.618Z,2808
2022-10-26T12:29:04.715Z,2620
2022-10-26T12:34:08.868Z,2499
2022-10-26T12:39:12.994Z,2503
2022-10-26T12:44:17.206Z,2670
2022-10-26T12:49:21.324Z,2693
2022-10-26T12:54:25.491Z,2796
2022-10-26T12:59:29.637Z,2567
2022-10-26T13:04:33.832Z,2523
2022-10-26T13:09:37.925Z,3258
2022-10-26T13:14:42.141Z,3423
2022-10-26T13:19:46.287Z,4955
2022-10-26T13:24:50.418Z,4543
2022-10-26T13:29:54.575Z,3411
2022-10-26T13:34:58.750Z,4815
2022-10-26T13:40:02.946Z,3661
2022-10-26T13:45:07.092Z,3191
2022-10-26T13:50:11.207Z,3090
2022-10-26T13:55:15.385Z,3130
2022-10-26T14:00:19.539Z,3153
2022-10-26T14:05:23.724Z,3113
2022-10-26T14:10:26.003Z,2920
2022-10-26T14:15:30.111Z,2704
2022-10-26T14:20:34.303Z,2566
2022-10-26T14:25:42.410Z,2589
2022-10-26T14:35:46.766Z,2443
2022-10-26T14:40:50.968Z,2263
2022-10-26T14:45:55.152Z,2205
2022-10-26T14:50:59.241Z,2150
2022-10-26T14:56:03.399Z,2141
2022-10-26T15:01:07.771Z,2068
2022-10-26T15:06:11.736Z,1900
2022-10-26T15:11:15.921Z,1767
2022-10-26T15:16:20.040Z,1623
2022-10-26T15:21:24.193Z,1500
2022-10-26T15:26:28.377Z,1410
2022-10-26T15:31:32.501Z,1379
2022-10-26T15:36:36.654Z,1290
2022-10-26T15:41:43.004Z,1139
2022-10-26T15:46:45.023Z,990
2022-10-26T15:51:49.176Z,835
2022-10-26T15:56:51.455Z,675
2022-10-26T16:01:55.735Z,528
2022-10-26T16:06:59.745Z,391
2022-10-26T16:12:03.898Z,274
2022-10-26T16:17:08.098Z,178
2022-10-26T16:27:16.386Z,71
2022-10-26T16:32:20.536Z,40
2022-10-26T16:37:24.776Z,15
2022-10-26T16:42:28.879Z,5
2022-10-26T16:47:33.030Z,2
2022-10-26T16:52:37.184Z,0
2022-10-26T16:57:41.364Z,0
2022-10-26T17:02:45.581Z,0
2022-10-26T17:07:50.111Z,0
2022-10-26T17:12:53.998Z,0
2022-10-26T17:17:57.991Z,0
2022-10-26T17:23:02.158Z,0
2022-10-26T17:28:06.331Z,0
2022-10-26T17:33:10.472Z,0
2022-10-26T17:38:12.784Z,0
2022-10-26T17:43:15.041Z,0
2022-10-26T17:48:20.197Z,0
2022-10-26T17:53:23.351Z,0
2022-10-26T17:58:27.491Z,0
2022-10-26T18:03:31.733Z,0
2022-10-26T18:08:35.825Z,0
2022-10-26T18:13:40.000Z,0
2022-10-26T18:18:44.147Z,0
2022-10-26T18:23:48.315Z,0
2022-10-26T18:28:52.573Z,0
2022-10-26T18:33:57.724Z,0
2022-10-26T18:39:00.769Z,0
2022-10-26T18:44:04.978Z,0
2022-10-26T18:49:11.399Z,0
2022-10-26T18:54:13.270Z,0
2022-10-26T18:59:17.421Z,0
2022-10-26T19:04:21.564Z,0
2022-10-26T19:09:27.784Z,0
2022-10-26T19:14:29.938Z,0
2022-10-26T19:19:34.042Z,0
2022-10-26T19:24:38.220Z,0
2022-10-26T19:29:40.517Z,0
2022-10-26T19:39:48.850Z,0
2022-10-26T19:44:52.964Z,0
2022-10-26T19:49:57.158Z,0
2022-10-26T19:55:01.309Z,0
2022-10-26T20:00:05.479Z,0
2022-10-26T20:05:09.575Z,0
2022-10-26T20:10:13.740Z,0
2022-10-26T20:15:17.957Z,0
2022-10-26T20:20:22.110Z,0
2022-10-26T20:25:26.224Z,0
2022-10-26T20:30:30.397Z,0
2022-10-26T20:35:34.589Z,0
2022-10-26T20:40:38.752Z,0
2022-10-26T20:45:42.858Z,0
2022-10-26T20:50:47.037Z,0
2022-10-26T20:55:51.204Z,0
2022-10-26T21:00:55.430Z,0
2022-10-26T21:05:59.532Z,0
2022-10-26T21:11:03.713Z,0
2022-10-26T21:16:07.903Z,0
2022-10-26T21:21:12.034Z,0
2022-10-26T21:26:16.170Z,0
2022-10-26T21:31:20.395Z,0
2022-10-26T21:36:24.505Z,0
2022-10-26T21:41:28.684Z,0
2022-10-26T21:46:32.808Z,0
2022-10-26T21:51:36.947Z,0
2022-10-26T21:56:41.126Z,0
2022-10-26T22:01:45.443Z,0
2022-10-26T22:06:49.436Z,0
2022-10-26T22:11:53.600Z,0
2022-10-26T22:16:57.817Z,0
2022-10-26T22:22:01.994Z,0
2022-10-26T22:27:06.092Z,0
2022-10-26T22:32:10.235Z,0
2022-10-26T22:37:14.420Z,0
2022-10-26T22:42:18.556Z,0
2022-10-26T22:47:22.853Z,0
2022-10-26T22:52:26.886Z,0
2022-10-26T22:57:31.053Z,0
2022-10-26T23:02:35.225Z,0
2022-10-26T23:07:39.358Z,0
2022-10-26T23:12:43.521Z,0
2022-10-26T23:17:47.838Z,0
2022-10-26T23:22:52.382Z,0
2022-10-26T23:27:56.012Z,0
2022-10-26T23:33:00.225Z,0
2022-10-26T23:38:04.427Z,0
2022-10-26T23:43:08.535Z,0
2022-10-26T23:48:12.669Z,0
2022-10-26T23:53:16.836Z,0
2022-10-26T23:58:21.001Z,0
